»·PEaware :: N733TR 63S-7W1

N733TR :: 63S-7W1

FLIGHT INFORMATION

Flight Status: Arrived
Operator: Privately registered:
United States
More flights under this callsign
Pilot: Jonathan B. (787)
Aircraft: ECLIPSE 500
(EA50)
More flights by this aircraft type
Origin: 63S Colville Mun
United States
Destination: 7W1 Port Of Ilwaco
United States
More flights between these airports :: More routes between these airports
Route:
File this flight plan on PilotEdge
Remarks:
Altitude:
(Current/Filed)
12,500ft
Speed:
(Current/Filed)
220kts
Departed: 22-Nov-20 02:33 PM
Arrived: 22-Nov-20 03:45 PM
Distance/Time
Traveled:
282nm/1:12
Distance/Time
To Go:
Arrived

Flight Plot

Page will automatically refresh every two minutes.

Flight plan parsing failed; only flown route is shown


Map Options




Map Legend


Flown Route
Filed Route
Departure Airport
Arrival Airport
Navaid (VOR, NDB)
Fix

Horizontal Profiles

Position Reports

Time Latitude Longitude Heading Altitude Ground
Speed
22-Nov-20 14:29 48.545342 -117.881071 324 1879ft 0kts
22-Nov-20 14:30 48.545342 -117.881071 324 1879ft 0kts
22-Nov-20 14:31 48.546540 -117.880112 39 1879ft 8kts
22-Nov-20 14:32 48.544409 -117.883167 217 1879ft 81kts
22-Nov-20 14:33 48.519169 -117.917849 208 3788ft 131kts
22-Nov-20 14:34 48.493594 -117.977103 231 6715ft 198kts
22-Nov-20 14:35 48.467026 -118.050789 247 10379ft 203kts
22-Nov-20 14:36 48.451763 -118.114687 240 12536ft 193kts
22-Nov-20 14:37 48.424749 -118.205970 240 12594ft 270kts
22-Nov-20 14:38 48.388079 -118.321274 239 12591ft 310kts
22-Nov-20 14:39 48.346860 -118.447778 239 12591ft 329kts
22-Nov-20 14:40 48.302767 -118.581864 240 12590ft 341kts
22-Nov-20 14:41 48.260715 -118.709046 239 12585ft 331kts
22-Nov-20 14:42 48.218946 -118.834642 239 12586ft 327kts
22-Nov-20 14:43 48.184371 -118.938009 239 12586ft 326kts
22-Nov-20 14:44 48.143698 -119.058832 238 12587ft 325kts
22-Nov-20 14:45 48.102420 -119.180372 238 12588ft 331kts
22-Nov-20 14:46 48.060054 -119.303716 238 12588ft 335kts
22-Nov-20 14:47 48.016986 -119.427958 238 12588ft 337kts
22-Nov-20 14:48 47.973589 -119.552114 238 12589ft 337kts
22-Nov-20 14:49 47.929988 -119.675861 237 12585ft 337kts
22-Nov-20 14:50 47.886150 -119.799345 237 12588ft 337kts
22-Nov-20 14:51 47.841964 -119.922868 237 12588ft 337kts
22-Nov-20 14:52 47.797727 -120.045562 237 12589ft 337kts
22-Nov-20 14:53 47.753121 -120.168317 237 12589ft 337kts
22-Nov-20 14:54 47.711543 -120.295116 237 12590ft 338kts
22-Nov-20 14:55 47.666725 -120.421160 238 12590ft 338kts
22-Nov-20 14:56 47.623127 -120.544339 238 12549ft 340kts
22-Nov-20 14:57 47.578975 -120.668692 237 12478ft 340kts
22-Nov-20 14:58 47.534975 -120.792044 237 12477ft 338kts
22-Nov-20 14:59 47.491000 -120.914753 237 12477ft 337kts
22-Nov-20 15:00 47.446980 -121.037024 237 12478ft 337kts
22-Nov-20 15:01 47.402810 -121.159147 237 12478ft 337kts
22-Nov-20 15:02 47.358436 -121.281268 237 12479ft 337kts
22-Nov-20 15:03 47.314038 -121.402898 237 12479ft 337kts
22-Nov-20 15:04 47.269314 -121.524860 237 12480ft 338kts
22-Nov-20 15:05 47.224654 -121.646095 237 12480ft 338kts
22-Nov-20 15:06 47.179799 -121.767304 237 12476ft 337kts
22-Nov-20 15:07 47.134870 -121.888160 237 12476ft 337kts
22-Nov-20 15:08 47.102162 -121.975566 241 13606ft 287kts
22-Nov-20 15:10 47.061259 -122.079328 243 12312ft 297kts
22-Nov-20 15:11 47.025678 -122.178338 242 12423ft 263kts
22-Nov-20 15:12 46.990272 -122.273187 241 12429ft 279kts
22-Nov-20 15:13 46.951271 -122.376412 241 12059ft 289kts
22-Nov-20 15:14 46.912669 -122.478324 239 10498ft 268kts
22-Nov-20 15:15 46.876829 -122.572210 237 8534ft 253kts
22-Nov-20 15:16 46.841363 -122.664680 236 6575ft 253kts
22-Nov-20 15:17 46.804814 -122.759015 243 4668ft 271kts
22-Nov-20 15:18 46.768127 -122.854818 242 4638ft 287kts
22-Nov-20 15:19 46.730302 -122.952597 242 4507ft 245kts
22-Nov-20 15:20 46.698957 -123.033365 242 4508ft 221kts
22-Nov-20 15:21 46.669058 -123.110206 242 4508ft 216kts
22-Nov-20 15:22 46.639492 -123.185943 242 4508ft 215kts
22-Nov-20 15:23 46.609904 -123.261524 242 4508ft 214kts
22-Nov-20 15:24 46.580331 -123.336864 242 4401ft 218kts
22-Nov-20 15:24 46.554897 -123.401489 242 3572ft 219kts
22-Nov-20 15:26 46.520472 -123.488626 242 3493ft 190kts
22-Nov-20 15:27 46.490165 -123.565642 237 3491ft 211kts
22-Nov-20 15:28 46.455278 -123.653230 237 3482ft 231kts
22-Nov-20 15:29 46.418430 -123.745621 237 2577ft 226kts
22-Nov-20 15:29 46.392388 -123.810866 237 2479ft 198kts
22-Nov-20 15:31 46.360206 -123.891171 237 2172ft 193kts
22-Nov-20 15:31 46.339433 -123.942027 222 1501ft 135kts
22-Nov-20 15:33 46.303456 -123.963554 199 1442ft 115kts
22-Nov-20 15:33 46.306392 -124.000472 350 991ft 135kts
22-Nov-20 15:34 46.308451 -124.025187 94 1001ft 97kts
22-Nov-20 15:35 46.294430 -123.987436 92 1364ft 105kts
22-Nov-20 15:36 46.314817 -124.003376 302 98ft 105kts
22-Nov-20 15:37 46.304679 -124.033874 135 1155ft 123kts
22-Nov-20 15:38 46.289237 -123.991642 120 1095ft 114kts
22-Nov-20 15:39 46.307274 -123.985369 311 468ft 122kts
22-Nov-20 15:40 46.313012 -124.030393 188 925ft 142kts
22-Nov-20 15:41 46.287423 -123.991340 109 432ft 125kts
22-Nov-20 15:42 46.291434 -123.963140 327 515ft 116kts
22-Nov-20 15:43 46.313525 -124.000323 299 30ft 91kts
22-Nov-20 15:44 46.316131 -124.007426 55 10ft 0kts

Navigation Log

Ident Type
Flight plan parsing failed, navigation log unavailable